Time;durP1;ratioP1;P1;durP2;ratioP2;P2;SDS_P1;SDS_P2;PMS_P1;PMS_P2;Temp;Humidity;BMP_temperature;BMP_pressure;BME280_temperature;BME280_humidity;BME280_pressure;Samples;Min_cycle;Max_cycle;Signal;HPM_P1;HPM_P2
2023/12/26 00:01:14;;;;;;;68.38;40.78;;;6.30;99.90;;;;;;4998750;28;20108;-88
2023/12/26 00:03:40;;;;;;;71.30;40.42;;;6.20;99.90;;;;;;4970094;28;20034;-85
2023/12/26 00:06:07;;;;;;;64.28;40.47;;;6.20;99.90;;;;;;4962739;28;20034;-89
2023/12/26 00:08:33;;;;;;;68.10;38.97;;;6.20;99.90;;;;;;4962560;28;20117;-85
2023/12/26 00:11:00;;;;;;;66.50;40.75;;;6.20;99.90;;;;;;4962135;28;20088;-86
2023/12/26 00:13:26;;;;;;;77.28;43.65;;;6.20;99.90;;;;;;4962868;28;20047;-84
2023/12/26 00:15:53;;;;;;;76.63;42.53;;;6.30;99.90;;;;;;4963954;28;20030;-85
2023/12/26 00:18:19;;;;;;;72.78;42.00;;;6.20;99.90;;;;;;4963742;28;20041;-84
2023/12/26 00:20:45;;;;;;;74.30;40.03;;;6.20;99.90;;;;;;4978730;28;20027;-84
2023/12/26 00:23:13;;;;;;;70.43;41.38;;;6.20;99.90;;;;;;4995528;28;20026;-84
2023/12/26 00:25:40;;;;;;;70.78;42.35;;;6.20;99.90;;;;;;4961947;28;20443;-84
2023/12/26 00:28:06;;;;;;;79.53;44.70;;;6.20;99.90;;;;;;4962316;28;20034;-84
2023/12/26 00:30:32;;;;;;;81.03;48.22;;;6.20;99.90;;;;;;4961849;28;20083;-86
2023/12/26 00:33:02;;;;;;;89.65;49.17;;;6.20;99.90;;;;;;4968453;28;20041;-86
2023/12/26 00:35:34;;;;;;;87.03;48.55;;;6.20;99.90;;;;;;4997921;28;20509;-87
2023/12/26 00:38:01;;;;;;;85.53;50.53;;;6.30;99.90;;;;;;4981187;28;20395;-84
2023/12/26 00:40:28;;;;;;;82.95;47.63;;;6.20;99.90;;;;;;4980808;28;20030;-83
2023/12/26 00:42:54;;;;;;;82.60;48.40;;;6.20;99.90;;;;;;4974757;28;20037;-83
2023/12/26 00:45:22;;;;;;;83.82;50.00;;;6.10;99.90;;;;;;4964967;28;20033;-84
2023/12/26 00:47:49;;;;;;;88.70;51.75;;;6.10;99.90;;;;;;4961309;28;20503;-84
2023/12/26 00:50:16;;;;;;;89.63;53.50;;;6.10;99.90;;;;;;4961461;28;20128;-84
2023/12/26 00:52:43;;;;;;;94.13;55.03;;;6.00;99.90;;;;;;4965570;28;20030;-82
2023/12/26 00:55:10;;;;;;;92.53;53.33;;;6.00;99.90;;;;;;4996928;28;20030;-84
2023/12/26 00:57:36;;;;;;;79.60;47.75;;;6.00;99.90;;;;;;4996662;28;20307;-81
2023/12/26 01:00:05;;;;;;;80.82;44.67;;;5.90;99.90;;;;;;4980482;28;20511;-82
2023/12/26 01:02:32;;;;;;;77.85;41.83;;;6.00;99.90;;;;;;4977508;28;20034;-81
2023/12/26 01:04:58;;;;;;;81.07;47.90;;;5.90;99.90;;;;;;4976868;28;20109;-82
2023/12/26 01:07:24;;;;;;;73.00;43.72;;;5.90;99.90;;;;;;4960795;28;20487;-83
2023/12/26 01:09:51;;;;;;;81.85;47.17;;;5.90;99.90;;;;;;4960814;28;20026;-82
2023/12/26 01:12:18;;;;;;;85.28;53.20;;;5.90;99.90;;;;;;4961353;28;20505;-82
2023/12/26 01:14:45;;;;;;;79.00;49.75;;;5.90;99.90;;;;;;4996524;28;20029;-82
2023/12/26 01:17:11;;;;;;;93.95;53.95;;;5.90;99.90;;;;;;4977753;28;20088;-86
2023/12/26 01:19:37;;;;;;;98.93;55.70;;;5.80;99.90;;;;;;4982311;28;20088;-82
2023/12/26 01:22:04;;;;;;;102.97;56.85;;;5.80;99.90;;;;;;4985285;28;20062;-91
2023/12/26 01:24:30;;;;;;;85.40;51.72;;;5.80;99.90;;;;;;4980334;28;20029;-86
2023/12/26 01:26:56;;;;;;;88.25;51.92;;;5.70;99.90;;;;;;4981507;28;20088;-87
2023/12/26 01:29:24;;;;;;;92.47;53.38;;;5.70;99.90;;;;;;4981335;28;20498;-88
2023/12/26 01:31:50;;;;;;;99.60;52.92;;;5.70;99.90;;;;;;4981769;28;20022;-89
2023/12/26 01:34:16;;;;;;;90.50;52.97;;;5.70;99.90;;;;;;4964305;28;20026;-84
2023/12/26 01:36:43;;;;;;;92.97;50.85;;;5.70;99.90;;;;;;4976679;28;20480;-82
2023/12/26 01:39:10;;;;;;;83.43;51.40;;;5.70;99.90;;;;;;4960401;28;20061;-85
2023/12/26 01:41:36;;;;;;;82.15;48.20;;;5.70;99.90;;;;;;4960804;28;20113;-83
2023/12/26 01:44:03;;;;;;;83.13;45.60;;;5.60;99.90;;;;;;4990768;28;20152;-83
2023/12/26 01:46:29;;;;;;;80.50;47.88;;;5.70;99.90;;;;;;4979944;28;20395;-83
2023/12/26 01:48:56;;;;;;;90.90;50.97;;;5.60;99.90;;;;;;4995501;28;20128;-82
2023/12/26 01:51:25;;;;;;;96.45;52.33;;;5.60;99.90;;;;;;4979719;28;20109;-86
2023/12/26 01:53:52;;;;;;;98.40;56.55;;;5.60;99.90;;;;;;4963051;28;20129;-83
2023/12/26 01:56:18;;;;;;;99.05;56.05;;;5.60;99.90;;;;;;4956812;28;20721;-83
2023/12/26 01:58:48;;;;;;;89.00;53.50;;;5.60;99.90;;;;;;4972869;28;20035;-83
2023/12/26 02:01:16;;;;;;;102.15;57.17;;;5.60;99.90;;;;;;4973829;28;20034;-83
2023/12/26 02:03:43;;;;;;;97.97;54.90;;;5.60;99.90;;;;;;4986987;28;20022;-82
2023/12/26 02:06:14;;;;;;;96.88;54.65;;;5.60;99.90;;;;;;4995463;28;20065;-82
2023/12/26 02:08:42;;;;;;;91.32;52.10;;;5.50;99.90;;;;;;4978987;28;20503;-80
2023/12/26 02:11:11;;;;;;;85.60;50.40;;;5.60;99.90;;;;;;4979764;28;20026;-81
2023/12/26 02:13:37;;;;;;;111.75;58.60;;;5.50;99.90;;;;;;5002274;28;20037;-83
2023/12/26 02:16:13;;;;;;;102.22;55.08;;;5.50;99.90;;;;;;4959621;28;20027;-81
2023/12/26 02:18:40;;;;;;;103.88;56.75;;;5.60;99.90;;;;;;4975594;28;20049;-82
2023/12/26 02:21:06;;;;;;;99.15;58.33;;;5.60;99.90;;;;;;4976152;28;20022;-83
2023/12/26 02:23:36;;;;;;;100.47;59.58;;;5.60;99.90;;;;;;4985235;28;20383;-83
2023/12/26 02:26:05;;;;;;;99.82;56.50;;;5.60;99.90;;;;;;4979475;28;20041;-82
2023/12/26 02:28:33;;;;;;;109.47;59.47;;;5.50;99.90;;;;;;4979057;28;20104;-83
2023/12/26 02:31:02;;;;;;;109.20;59.42;;;5.50;99.90;;;;;;4979696;28;20022;-82
2023/12/26 02:33:34;;;;;;;109.65;57.28;;;5.50;99.90;;;;;;4972469;28;20034;-82
2023/12/26 02:36:01;;;;;;;102.82;57.53;;;5.50;99.90;;;;;;4980112;28;20030;-83
2023/12/26 02:38:30;;;;;;;112.93;58.45;;;5.50;99.90;;;;;;4959624;28;20042;-82
2023/12/26 02:40:56;;;;;;;103.13;56.10;;;5.60;99.90;;;;;;4976499;28;20108;-84
2023/12/26 02:43:25;;;;;;;109.72;55.75;;;5.50;99.90;;;;;;4987571;28;20083;-82
2023/12/26 02:45:55;;;;;;;107.22;57.05;;;5.50;99.90;;;;;;4982774;28;20029;-82
2023/12/26 02:48:21;;;;;;;108.60;57.03;;;5.50;99.90;;;;;;4979137;28;20050;-83
2023/12/26 02:50:48;;;;;;;102.93;56.78;;;5.60;99.90;;;;;;4995802;28;20062;-82
2023/12/26 02:53:14;;;;;;;112.07;57.22;;;5.60;99.90;;;;;;4969593;28;20425;-83
2023/12/26 02:55:41;;;;;;;113.82;60.95;;;5.60;99.90;;;;;;4972878;28;20031;-82
2023/12/26 02:58:08;;;;;;;114.22;60.55;;;5.70;99.90;;;;;;4958109;28;20046;-83
2023/12/26 03:00:34;;;;;;;107.50;61.47;;;5.70;99.90;;;;;;4956992;28;20055;-82
2023/12/26 03:03:01;;;;;;;116.70;60.17;;;5.70;99.90;;;;;;4981279;28;20069;-83
2023/12/26 03:05:27;;;;;;;115.50;58.25;;;5.70;99.90;;;;;;4996477;28;20037;-82
2023/12/26 03:07:54;;;;;;;129.23;63.92;;;5.60;99.90;;;;;;4995394;28;20034;-81
2023/12/26 03:10:21;;;;;;;117.68;61.17;;;5.60;99.90;;;;;;4979058;28;20031;-81
2023/12/26 03:12:47;;;;;;;116.32;61.80;;;5.60;99.90;;;;;;4992865;28;21527;-82
2023/12/26 03:15:15;;;;;;;112.38;62.35;;;5.60;99.90;;;;;;4959516;28;20030;-82
2023/12/26 03:17:42;;;;;;;133.82;63.05;;;5.50;99.90;;;;;;4967572;28;20389;-82
2023/12/26 03:20:09;;;;;;;119.10;58.75;;;5.50;99.90;;;;;;4956297;28;20027;-82
2023/12/26 03:22:39;;;;;;;125.13;62.45;;;5.50;99.90;;;;;;4972848;28;20077;-82
2023/12/26 03:25:07;;;;;;;110.53;58.70;;;5.50;99.90;;;;;;4973181;28;20504;-82
2023/12/26 03:27:34;;;;;;;101.00;58.92;;;5.40;99.90;;;;;;4972095;28;20032;-82
2023/12/26 03:30:01;;;;;;;104.13;59.78;;;5.40;99.90;;;;;;4971095;28;20027;-82
2023/12/26 03:32:27;;;;;;;110.32;59.63;;;5.40;99.90;;;;;;4971868;28;20031;-82
2023/12/26 03:34:53;;;;;;;117.78;61.70;;;5.30;99.90;;;;;;4978420;28;20022;-82
2023/12/26 03:37:20;;;;;;;116.00;60.95;;;5.30;99.90;;;;;;4994652;28;20033;-82
2023/12/26 03:39:48;;;;;;;110.05;60.92;;;5.20;99.90;;;;;;4994942;28;20762;-82
2023/12/26 03:42:14;;;;;;;118.63;63.47;;;5.30;99.90;;;;;;4978358;28;20022;-82
2023/12/26 03:44:40;;;;;;;107.97;60.50;;;5.30;99.90;;;;;;4977601;28;20042;-82
2023/12/26 03:47:07;;;;;;;123.03;61.97;;;5.30;99.90;;;;;;4958964;28;20527;-82
2023/12/26 03:49:33;;;;;;;113.57;61.80;;;5.30;99.90;;;;;;4974936;28;20742;-82
2023/12/26 03:52:00;;;;;;;108.57;59.63;;;5.30;99.90;;;;;;4959135;28;20031;-82
2023/12/26 03:54:27;;;;;;;107.47;60.75;;;5.30;99.90;;;;;;4958887;28;20034;-82
2023/12/26 03:56:53;;;;;;;103.30;59.85;;;5.20;99.90;;;;;;4959168;28;20082;-82
2023/12/26 03:59:20;;;;;;;107.75;58.65;;;5.20;99.90;;;;;;4974840;28;20038;-82
2023/12/26 04:01:46;;;;;;;103.40;59.28;;;5.20;99.90;;;;;;4976117;28;20027;-82
2023/12/26 04:04:13;;;;;;;105.47;59.05;;;5.20;99.90;;;;;;4974786;28;20062;-82
2023/12/26 04:06:40;;;;;;;104.78;59.50;;;5.20;99.90;;;;;;4958704;28;20054;-82
2023/12/26 04:09:06;;;;;;;109.95;58.67;;;5.20;99.90;;;;;;4974472;28;20034;-82
2023/12/26 04:11:33;;;;;;;109.50;60.38;;;5.20;99.90;;;;;;4974676;28;20551;-82
2023/12/26 04:13:59;;;;;;;105.90;60.60;;;5.20;99.90;;;;;;4958423;28;20480;-82
2023/12/26 04:16:29;;;;;;;101.28;56.70;;;5.20;99.90;;;;;;4958894;28;20357;-82
2023/12/26 04:18:56;;;;;;;104.07;58.75;;;5.20;99.90;;;;;;4975641;28;20110;-82
2023/12/26 04:21:26;;;;;;;101.05;56.78;;;5.20;99.90;;;;;;4975718;28;20047;-82
2023/12/26 04:23:52;;;;;;;103.78;57.95;;;5.30;99.90;;;;;;4974435;28;20027;-82
2023/12/26 04:26:18;;;;;;;94.97;55.92;;;5.40;99.90;;;;;;4974386;28;20045;-82
2023/12/26 04:28:45;;;;;;;112.60;61.22;;;5.40;99.90;;;;;;4975610;28;20053;-82
2023/12/26 04:31:12;;;;;;;114.35;59.03;;;5.60;99.90;;;;;;4974295;28;20031;-81
2023/12/26 04:33:38;;;;;;;115.68;62.35;;;5.70;99.90;;;;;;4974201;28;20019;-82
2023/12/26 04:36:08;;;;;;;106.32;61.00;;;5.80;99.90;;;;;;4974247;28;20034;-82
2023/12/26 04:38:34;;;;;;;114.53;62.83;;;5.90;99.90;;;;;;4974003;28;20043;-82
2023/12/26 04:41:01;;;;;;;115.10;59.35;;;5.90;99.90;;;;;;4958175;28;20117;-82
2023/12/26 04:43:27;;;;;;;112.50;61.28;;;5.90;99.90;;;;;;4964326;28;20095;-82
2023/12/26 04:45:54;;;;;;;112.60;61.53;;;5.90;99.90;;;;;;4920369;29;20024;-82
2023/12/26 04:48:20;;;;;;;99.75;60.80;;;5.90;99.90;;;;;;4928861;29;20051;-82
2023/12/26 04:50:47;;;;;;;88.13;53.53;;;5.90;99.90;;;;;;4955920;28;20110;-81
2023/12/26 04:53:14;;;;;;;96.93;56.00;;;5.70;99.90;;;;;;4963840;28;20105;-81
2023/12/26 04:55:41;;;;;;;98.90;55.88;;;5.70;99.90;;;;;;4977115;28;20030;-82
2023/12/26 04:58:08;;;;;;;100.15;56.30;;;5.60;99.90;;;;;;4976913;28;20041;-81
2023/12/26 05:00:35;;;;;;;95.13;53.95;;;5.70;99.90;;;;;;4977299;28;20030;-82
2023/12/26 05:03:02;;;;;;;94.82;53.25;;;5.70;99.90;;;;;;4973951;28;20030;-81
2023/12/26 05:05:28;;;;;;;90.05;52.65;;;5.70;99.90;;;;;;4957863;28;20030;-81
2023/12/26 05:07:55;;;;;;;84.88;50.22;;;5.70;99.90;;;;;;4958062;28;20073;-82
2023/12/26 05:10:21;;;;;;;87.93;52.75;;;5.80;99.90;;;;;;4957799;28;20034;-82
2023/12/26 05:12:48;;;;;;;90.70;50.95;;;5.80;99.90;;;;;;4974414;28;20057;-81
2023/12/26 05:15:14;;;;;;;99.75;53.20;;;5.80;99.90;;;;;;4976884;28;20026;-82
2023/12/26 05:17:44;;;;;;;96.72;54.72;;;5.80;99.90;;;;;;4992786;28;20044;-82
2023/12/26 05:20:11;;;;;;;91.80;52.17;;;5.70;99.90;;;;;;4976744;28;20030;-81
2023/12/26 05:22:39;;;;;;;96.40;52.05;;;5.70;99.90;;;;;;4989583;28;20117;-82
2023/12/26 05:25:10;;;;;;;86.40;50.28;;;5.70;99.90;;;;;;4970169;28;20553;-82
2023/12/26 05:27:37;;;;;;;87.47;50.15;;;5.70;99.90;;;;;;4954085;28;20098;-82
2023/12/26 05:30:05;;;;;;;87.15;50.13;;;5.70;99.90;;;;;;4955174;28;20086;-82
2023/12/26 05:32:31;;;;;;;82.97;48.97;;;5.60;99.90;;;;;;4954055;28;20039;-82
2023/12/26 05:34:59;;;;;;;80.72;47.17;;;5.60;99.90;;;;;;4991173;28;20023;-82
2023/12/26 05:37:25;;;;;;;82.68;46.78;;;5.60;99.90;;;;;;4992546;28;20057;-81
2023/12/26 05:39:52;;;;;;;82.63;45.45;;;5.60;99.90;;;;;;4976582;28;20042;-82
2023/12/26 05:42:18;;;;;;;76.03;45.13;;;5.60;99.90;;;;;;4993882;28;20626;-81
2023/12/26 05:44:45;;;;;;;74.55;44.60;;;5.60;99.90;;;;;;4993633;28;20097;-82
2023/12/26 05:47:12;;;;;;;80.75;43.97;;;5.60;99.90;;;;;;4992553;28;20488;-82
2023/12/26 05:49:39;;;;;;;78.97;45.40;;;5.70;99.90;;;;;;5011583;28;20188;-82
2023/12/26 05:52:06;;;;;;;76.47;43.15;;;5.70;99.90;;;;;;4980164;28;20497;-82
2023/12/26 05:54:33;;;;;;;73.55;44.25;;;5.70;99.90;;;;;;4965266;28;20388;-82
2023/12/26 05:56:59;;;;;;;72.45;42.58;;;5.70;99.90;;;;;;4976101;28;20030;-81
2023/12/26 05:59:25;;;;;;;76.88;40.40;;;5.70;99.90;;;;;;4975964;28;20042;-82
2023/12/26 06:01:52;;;;;;;67.85;39.28;;;5.80;99.90;;;;;;4993595;28;20107;-81
2023/12/26 06:04:18;;;;;;;69.93;39.42;;;5.80;99.90;;;;;;4972215;28;20032;-82
2023/12/26 06:06:45;;;;;;;65.05;37.20;;;5.80;99.90;;;;;;4979377;28;20128;-82
2023/12/26 06:09:11;;;;;;;64.15;35.83;;;5.90;99.90;;;;;;4982383;28;20026;-82
2023/12/26 06:11:37;;;;;;;66.38;38.20;;;5.90;99.90;;;;;;5000402;28;20124;-82
2023/12/26 06:14:05;;;;;;;63.22;36.78;;;6.00;99.90;;;;;;5007523;28;20019;-82
2023/12/26 06:16:32;;;;;;;68.93;40.58;;;6.00;99.90;;;;;;4997496;28;20065;-82
2023/12/26 06:18:58;;;;;;;74.85;40.30;;;6.10;99.90;;;;;;4980059;28;20034;-82
2023/12/26 06:21:25;;;;;;;68.78;38.03;;;6.10;99.90;;;;;;4964175;28;20026;-82
2023/12/26 06:23:52;;;;;;;64.80;39.42;;;6.10;99.90;;;;;;4972636;28;20030;-82
2023/12/26 06:26:19;;;;;;;64.85;38.50;;;6.10;99.90;;;;;;4999580;28;20122;-82
2023/12/26 06:28:45;;;;;;;61.38;35.83;;;6.10;99.90;;;;;;4984253;28;20029;-81
2023/12/26 06:31:14;;;;;;;61.33;35.70;;;6.20;99.90;;;;;;4985526;28;20026;-81
2023/12/26 06:33:40;;;;;;;52.33;35.20;;;6.10;99.90;;;;;;4992361;28;20088;-82
2023/12/26 06:36:07;;;;;;;54.78;34.58;;;6.20;99.90;;;;;;4979843;28;20053;-82
2023/12/26 06:38:33;;;;;;;56.38;34.28;;;6.30;99.90;;;;;;4963381;28;20053;-82
2023/12/26 06:41:01;;;;;;;57.90;36.25;;;6.40;99.90;;;;;;4963586;28;20058;-82
2023/12/26 06:43:28;;;;;;;61.15;40.22;;;6.40;99.90;;;;;;4984300;28;20034;-82
2023/12/26 06:45:55;;;;;;;68.00;41.08;;;6.60;99.90;;;;;;4982838;28;20030;-82
2023/12/26 06:48:22;;;;;;;62.78;36.95;;;6.60;99.90;;;;;;4962769;28;20146;-81
2023/12/26 06:50:49;;;;;;;59.13;37.80;;;6.70;99.90;;;;;;4960102;28;20106;-82
2023/12/26 06:53:16;;;;;;;60.38;37.03;;;6.80;99.90;;;;;;4979177;28;20018;-82
2023/12/26 06:55:42;;;;;;;56.10;35.80;;;6.80;99.90;;;;;;4979362;28;20038;-82
2023/12/26 06:58:08;;;;;;;60.80;36.08;;;6.90;99.90;;;;;;4996636;28;20428;-81
2023/12/26 07:00:35;;;;;;;58.63;37.20;;;7.00;99.90;;;;;;4995451;28;20026;-82
2023/12/26 07:03:02;;;;;;;66.65;36.78;;;7.00;99.90;;;;;;4994322;28;20026;-82
2023/12/26 07:05:29;;;;;;;60.00;32.95;;;7.00;99.90;;;;;;4959927;28;20038;-82
2023/12/26 07:07:55;;;;;;;82.57;33.28;;;7.10;99.90;;;;;;4960159;28;20034;-82
2023/12/26 07:10:21;;;;;;;63.88;30.25;;;7.10;99.90;;;;;;4960461;28;20041;-82
2023/12/26 07:12:47;;;;;;;60.38;29.95;;;7.10;99.90;;;;;;4965159;28;20121;-82
2023/12/26 07:15:14;;;;;;;65.10;30.77;;;7.20;99.90;;;;;;4976572;28;20027;-82
2023/12/26 07:17:40;;;;;;;45.13;28.05;;;7.20;99.90;;;;;;4959774;28;20078;-82
2023/12/26 07:20:08;;;;;;;42.13;27.30;;;7.20;99.90;;;;;;4974191;28;20034;-82
2023/12/26 07:22:34;;;;;;;44.92;27.10;;;7.30;99.90;;;;;;4959556;28;20105;-82
2023/12/26 07:25:01;;;;;;;46.65;26.70;;;7.30;99.90;;;;;;4992248;28;20431;-82
2023/12/26 07:27:27;;;;;;;51.15;27.38;;;7.30;99.90;;;;;;4995258;28;20118;-82
2023/12/26 07:29:53;;;;;;;47.55;27.77;;;7.40;99.90;;;;;;4995106;28;20443;-82
2023/12/26 07:32:20;;;;;;;52.00;28.88;;;7.40;99.90;;;;;;4996355;28;20030;-82
2023/12/26 07:34:47;;;;;;;51.10;29.83;;;7.40;99.90;;;;;;4981770;28;20090;-82
2023/12/26 07:37:13;;;;;;;51.40;29.17;;;7.40;99.90;;;;;;4976767;28;20018;-82
2023/12/26 07:39:40;;;;;;;47.85;30.20;;;7.40;99.90;;;;;;4976930;28;20559;-82
2023/12/26 07:42:07;;;;;;;44.00;27.48;;;7.40;99.90;;;;;;4959777;28;20027;-82
2023/12/26 07:44:38;;;;;;;42.97;27.13;;;7.40;99.90;;;;;;4973387;28;20088;-81
2023/12/26 07:47:04;;;;;;;51.83;29.70;;;7.50;99.90;;;;;;4994874;28;20026;-82
2023/12/26 07:49:30;;;;;;;59.00;31.13;;;7.50;99.90;;;;;;4978623;28;20046;-82
2023/12/26 07:51:57;;;;;;;70.18;37.42;;;7.60;99.90;;;;;;4995922;28;20069;-82
2023/12/26 07:54:23;;;;;;;79.68;38.88;;;7.70;99.90;;;;;;4965560;28;20552;-82
2023/12/26 07:56:50;;;;;;;69.25;36.13;;;7.80;99.90;;;;;;4957078;28;20031;-82
2023/12/26 07:59:19;;;;;;;68.70;36.05;;;8.00;99.90;;;;;;4973130;28;20031;-82
2023/12/26 08:01:45;;;;;;;67.75;34.63;;;8.20;99.90;;;;;;4956187;28;20038;-82
2023/12/26 08:04:12;;;;;;;60.17;34.35;;;8.30;99.90;;;;;;4984378;28;20100;-82
2023/12/26 08:06:38;;;;;;;110.65;58.38;;;8.50;99.90;;;;;;4994327;28;20022;-82
2023/12/26 08:09:04;;;;;;;132.70;73.13;;;8.70;99.90;;;;;;4978025;28;20022;-82
2023/12/26 08:11:31;;;;;;;104.40;59.85;;;8.90;99.90;;;;;;4995665;28;20108;-81
2023/12/26 08:13:57;;;;;;;83.93;44.83;;;9.10;99.90;;;;;;4979061;28;20499;-82
2023/12/26 08:16:24;;;;;;;65.00;36.88;;;9.30;99.90;;;;;;4994034;28;20073;-82
2023/12/26 08:18:50;;;;;;;53.38;35.22;;;9.40;99.90;;;;;;4993937;28;20038;-82
2023/12/26 08:21:17;;;;;;;58.78;38.20;;;9.60;99.90;;;;;;4995199;28;20023;-82
2023/12/26 08:23:44;;;;;;;52.40;32.40;;;9.70;99.90;;;;;;4989695;28;20081;-82
2023/12/26 08:26:14;;;;;;;71.80;48.08;;;10.20;99.90;;;;;;4975675;28;20019;-82
2023/12/26 08:28:41;;;;;;;53.63;32.10;;;10.90;99.90;;;;;;4975583;28;20023;-82
2023/12/26 08:31:08;;;;;;;50.45;30.67;;;11.50;99.90;;;;;;4973945;28;20027;-81
2023/12/26 08:33:37;;;;;;;47.75;28.38;;;12.10;99.90;;;;;;4979559;28;20022;-82
2023/12/26 08:36:04;;;;;;;49.00;30.13;;;12.40;99.90;;;;;;4994855;28;20511;-81
2023/12/26 08:38:30;;;;;;;47.08;28.67;;;12.90;99.90;;;;;;4994750;28;20034;-82
2023/12/26 08:40:56;;;;;;;40.75;27.88;;;13.30;99.90;;;;;;4986550;28;20027;-82
2023/12/26 08:43:23;;;;;;;50.05;30.20;;;13.40;99.90;;;;;;4960825;28;20396;-82
2023/12/26 08:45:50;;;;;;;50.85;33.85;;;13.70;99.90;;;;;;4993496;28;20026;-82
2023/12/26 08:48:16;;;;;;;52.58;32.88;;;13.90;99.90;;;;;;4977156;28;20049;-82
2023/12/26 08:50:43;;;;;;;48.20;35.28;;;14.00;99.90;;;;;;4977231;28;20042;-82
2023/12/26 08:53:09;;;;;;;59.92;40.80;;;14.10;99.90;;;;;;4992810;28;20030;-83
2023/12/26 08:55:35;;;;;;;77.68;47.50;;;14.10;99.90;;;;;;4957749;28;20034;-83
2023/12/26 08:58:02;;;;;;;64.97;43.35;;;13.90;99.90;;;;;;4973550;28;20414;-81
2023/12/26 09:00:28;;;;;;;61.53;42.85;;;14.00;99.90;;;;;;4957515;28;20023;-80
2023/12/26 09:02:55;;;;;;;59.47;41.90;;;14.00;99.90;;;;;;4973689;28;20458;-80
2023/12/26 09:05:21;;;;;;;59.63;42.30;;;14.00;99.90;;;;;;4992640;28;20384;-80
2023/12/26 09:07:47;;;;;;;59.65;39.92;;;14.10;99.90;;;;;;4990150;28;20440;-81
2023/12/26 09:10:13;;;;;;;50.55;38.22;;;14.10;99.90;;;;;;4992847;28;20026;-81
2023/12/26 09:12:40;;;;;;;55.13;39.35;;;14.30;99.90;;;;;;4993119;28;20033;-81
2023/12/26 09:15:06;;;;;;;48.38;34.58;;;14.40;99.90;;;;;;4961343;28;20031;-81
2023/12/26 09:17:32;;;;;;;46.38;33.03;;;14.50;99.90;;;;;;4957403;28;20114;-82
2023/12/26 09:19:59;;;;;;;38.20;32.80;;;14.70;99.90;;;;;;4957228;28;20035;-81
2023/12/26 09:22:26;;;;;;;39.95;33.35;;;14.80;99.90;;;;;;4973454;28;20127;-82
2023/12/26 09:24:52;;;;;;;48.55;34.65;;;15.00;99.90;;;;;;4970904;28;20507;-82
2023/12/26 09:27:18;;;;;;;48.40;32.67;;;15.00;99.90;;;;;;4992728;28;20479;-81
2023/12/26 09:29:44;;;;;;;34.90;31.05;;;15.20;99.90;;;;;;4992720;28;20034;-82
2023/12/26 09:32:14;;;;;;;52.53;36.13;;;15.20;99.90;;;;;;4992607;28;20027;-80
2023/12/26 09:34:40;;;;;;;45.88;34.20;;;15.40;99.90;;;;;;4961127;28;20039;-81
2023/12/26 09:37:07;;;;;;;43.83;32.85;;;15.40;99.90;;;;;;4969946;28;20086;-82
2023/12/26 09:39:33;;;;;;;40.35;30.85;;;15.60;99.90;;;;;;4969855;28;20501;-81
2023/12/26 09:42:02;;;;;;;36.17;29.30;;;15.90;99.90;;;;;;4953499;28;20029;-82
2023/12/26 09:44:35;;;;;;;38.58;30.77;;;15.70;99.90;;;;;;4983164;28;20384;-85
2023/12/26 09:47:04;;;;;;;34.28;30.65;;;15.70;99.90;;;;;;4976755;28;20080;-81
2023/12/26 09:49:31;;;;;;;35.50;28.70;;;15.70;99.90;;;;;;4959170;28;20436;-82
2023/12/26 09:52:02;;;;;;;32.22;25.40;;;15.70;99.90;;;;;;4956975;28;20042;-82
2023/12/26 09:54:32;;;;;;;23.05;20.85;;;15.80;99.90;;;;;;4958092;28;20374;-81
2023/12/26 09:57:00;;;;;;;26.80;24.00;;;15.80;99.90;;;;;;4975222;28;20488;-81
2023/12/26 09:59:29;;;;;;;27.20;23.50;;;16.00;99.90;;;;;;4972962;28;20464;-81
2023/12/26 10:01:57;;;;;;;41.22;32.30;;;16.30;99.90;;;;;;4974569;28;20023;-82
2023/12/26 10:04:25;;;;;;;37.70;32.58;;;16.50;99.90;;;;;;4972874;28;20031;-82
2023/12/26 10:06:54;;;;;;;33.55;30.20;;;16.40;99.90;;;;;;4973161;28;20073;-89
2023/12/26 10:09:20;;;;;;;38.28;34.33;;;16.40;99.90;;;;;;4957148;28;20038;-83
2023/12/26 10:11:47;;;;;;;38.30;34.35;;;16.20;99.90;;;;;;4957101;28;20131;-83
2023/12/26 10:14:30;;;;;;;37.13;31.35;;;16.00;99.90;;;;;;4956803;28;20063;-81
2023/12/26 10:16:57;;;;;;;34.38;30.90;;;15.90;99.90;;;;;;4957179;28;20118;-83
2023/12/26 10:19:25;;;;;;;33.92;28.95;;;15.80;99.90;;;;;;4956482;28;20496;-82
2023/12/26 10:21:54;;;;;;;31.48;26.90;;;15.80;99.90;;;;;;4974108;28;20058;-83
2023/12/26 10:24:21;;;;;;;38.75;26.92;;;15.80;99.90;;;;;;4956820;28;20062;-82
2023/12/26 10:26:50;;;;;;;25.50;22.67;;;16.10;99.90;;;;;;4972678;28;20031;-82
2023/12/26 10:29:20;;;;;;;22.83;20.35;;;16.40;99.90;;;;;;4972681;28;20484;-86
2023/12/26 10:31:46;;;;;;;22.05;19.50;;;16.80;99.90;;;;;;4973762;28;20404;-89
2023/12/26 10:34:19;;;;;;;31.25;21.98;;;17.00;99.90;;;;;;4973260;28;20404;-86
2023/12/26 10:36:47;;;;;;;25.33;22.10;;;17.10;99.90;;;;;;4973165;28;20492;-87
2023/12/26 10:39:14;;;;;;;28.50;23.33;;;17.10;99.90;;;;;;4974209;28;20035;-86
2023/12/26 10:41:48;;;;;;;27.92;25.35;;;17.10;99.90;;;;;;4973292;28;20049;-89
2023/12/26 10:44:16;;;;;;;28.67;25.80;;;17.10;99.90;;;;;;4966426;28;20034;-87
2023/12/26 10:46:43;;;;;;;29.63;23.90;;;17.00;99.90;;;;;;4953978;29;20027;-86
2023/12/26 10:49:12;;;;;;;26.85;24.42;;;16.90;99.90;;;;;;4951296;28;20047;-87
2023/12/26 10:51:44;;;;;;;27.10;24.35;;;16.80;99.90;;;;;;4973469;28;20031;-86
2023/12/26 10:54:23;;;;;;;24.40;22.10;;;16.80;99.90;;;;;;4981289;28;20030;-86
2023/12/26 10:56:50;;;;;;;27.45;22.95;;;16.60;99.90;;;;;;4979705;28;20101;-86
2023/12/26 13:52:30;;;;;;;21.30;18.70;;;15.80;99.90;;;;;;4993563;28;20045;-79
2023/12/26 13:54:57;;;;;;;21.73;17.90;;;15.60;99.90;;;;;;4969691;28;20080;-81
2023/12/26 13:57:23;;;;;;;21.98;17.00;;;15.40;99.90;;;;;;4979279;28;20499;-82
2023/12/26 13:59:49;;;;;;;23.10;17.35;;;15.40;99.90;;;;;;4979008;28;20042;-82
2023/12/26 14:02:15;;;;;;;19.27;17.33;;;15.30;99.90;;;;;;4979104;28;20018;-81
2023/12/26 14:04:42;;;;;;;19.92;17.60;;;15.20;99.90;;;;;;4986675;28;20133;-82
2023/12/26 14:07:08;;;;;;;23.50;18.88;;;15.20;99.90;;;;;;4959765;28;20030;-81
2023/12/26 14:09:35;;;;;;;19.58;17.58;;;15.20;99.90;;;;;;4959297;28;20027;-82
2023/12/26 14:12:01;;;;;;;23.13;20.90;;;15.30;99.90;;;;;;4959350;28;20056;-81
2023/12/26 14:14:27;;;;;;;22.02;19.23;;;15.30;99.90;;;;;;4965566;28;20061;-82
2023/12/26 14:16:54;;;;;;;21.17;19.27;;;15.20;99.90;;;;;;4979222;28;20486;-81
2023/12/26 14:19:20;;;;;;;21.90;17.88;;;15.30;99.90;;;;;;4995227;28;20042;-81
2023/12/26 14:21:47;;;;;;;25.48;22.98;;;15.20;99.90;;;;;;4995656;28;20030;-82
2023/12/26 14:24:14;;;;;;;45.13;30.48;;;15.20;99.90;;;;;;4975129;28;20022;-81
2023/12/26 14:26:40;;;;;;;20.70;17.23;;;15.30;99.90;;;;;;4959936;28;20031;-81
2023/12/26 14:29:06;;;;;;;20.80;17.10;;;15.20;99.90;;;;;;4977237;28;20038;-81
2023/12/26 14:31:33;;;;;;;39.72;27.23;;;15.20;99.90;;;;;;4963692;28;20030;-81
2023/12/26 14:34:00;;;;;;;44.08;24.52;;;15.30;99.90;;;;;;4979678;28;20030;-81
2023/12/26 14:36:26;;;;;;;22.60;20.00;;;15.10;99.90;;;;;;4982919;28;20501;-81
2023/12/26 14:38:53;;;;;;;21.98;18.45;;;15.00;99.90;;;;;;4982754;28;20049;-80
2023/12/26 14:41:19;;;;;;;34.10;22.00;;;15.10;99.90;;;;;;4982866;28;20018;-80
2023/12/26 14:43:46;;;;;;;36.63;26.67;;;15.10;99.90;;;;;;4999054;28;20534;-83
2023/12/26 14:46:14;;;;;;;26.88;23.23;;;15.00;99.90;;;;;;4979509;28;20022;-82
2023/12/26 14:48:41;;;;;;;20.98;18.77;;;15.00;99.90;;;;;;4959912;28;20047;-82
2023/12/26 14:51:07;;;;;;;21.65;18.67;;;14.90;99.90;;;;;;4960037;28;20027;-80
2023/12/26 14:53:33;;;;;;;18.75;16.88;;;14.90;99.90;;;;;;4976110;28;20031;-81
2023/12/26 14:56:02;;;;;;;21.10;17.63;;;14.80;99.90;;;;;;4975893;28;20122;-81
2023/12/26 14:58:29;;;;;;;22.75;17.95;;;14.80;99.90;;;;;;4975845;28;20031;-83
2023/12/26 15:00:55;;;;;;;23.45;18.63;;;14.70;99.90;;;;;;4975918;28;20031;-82
2023/12/26 15:03:21;;;;;;;20.80;18.65;;;14.60;99.90;;;;;;4975977;28;20039;-82
2023/12/26 15:05:47;;;;;;;20.35;18.35;;;14.50;99.90;;;;;;4959877;28;20141;-82
2023/12/26 15:08:14;;;;;;;20.63;18.70;;;14.50;99.90;;;;;;4975835;28;20031;-84
2023/12/26 15:10:40;;;;;;;20.90;17.85;;;14.40;99.90;;;;;;4959809;28;20019;-87
2023/12/26 15:13:06;;;;;;;19.95;18.02;;;14.30;99.90;;;;;;4975933;28;20098;-82
2023/12/26 15:15:33;;;;;;;21.55;19.25;;;14.30;99.90;;;;;;4959679;28;20038;-81
2023/12/26 15:17:59;;;;;;;23.15;19.70;;;14.30;99.90;;;;;;4975661;28;20030;-81
2023/12/26 15:20:29;;;;;;;28.67;23.33;;;14.20;99.90;;;;;;4976927;28;20030;-84
2023/12/26 15:22:55;;;;;;;36.13;28.60;;;14.20;99.90;;;;;;4976835;28;20023;-83